Time;durP1;ratioP1;P1;durP2;ratioP2;P2;SDS_P1;SDS_P2;PMS_P1;PMS_P2;Temp;Humidity;BMP_temperature;BMP_pressure;BME280_temperature;BME280_humidity;BME280_pressure;Samples;Min_cycle;Max_cycle;Signal;HPM_P1;HPM_P2
2022/05/15 00:01:36;;;;;;;79.63;30.90;;;;;;;27.66;61.75;97096.66;4911495;29;20056;-64
2022/05/15 00:04:19;;;;;;;72.25;30.42;;;;;;;27.57;58.34;97108.38;4911173;29;20059;-64
2022/05/15 00:07:07;;;;;;;78.57;31.90;;;;;;;27.54;58.30;97102.69;4911330;29;20365;-65
2022/05/15 00:09:49;;;;;;;70.43;27.52;;;;;;;27.50;60.21;97107.47;4922743;29;20075;-64
2022/05/15 00:12:39;;;;;;;74.75;27.85;;;;;;;27.45;57.94;97107.25;4930109;29;20055;-63
2022/05/15 00:15:21;;;;;;;68.13;28.92;;;;;;;27.43;60.44;97103.97;4920724;29;20552;-64
2022/05/15 00:18:11;;;;;;;65.35;26.92;;;;;;;27.42;61.35;97104.97;4898064;29;20067;-66
2022/05/15 00:20:54;;;;;;;72.57;25.58;;;;;;;27.38;60.50;97104.53;4920107;29;20048;-64
2022/05/15 00:23:43;;;;;;;69.80;25.63;;;;;;;27.41;63.08;97108.63;4910870;29;20060;-63
2022/05/15 00:26:26;;;;;;;62.58;26.27;;;;;;;27.46;63.73;97122.09;4910562;29;20052;-63
2022/05/15 00:29:15;;;;;;;75.70;27.10;;;;;;;27.43;62.03;97122.47;4901944;29;20056;-63
2022/05/15 00:31:58;;;;;;;76.72;29.52;;;;;;;27.41;60.99;97129.78;4898937;29;20472;-65
2022/05/15 00:34:46;;;;;;;69.22;28.17;;;;;;;27.39;57.97;97147.66;4910743;29;20104;-64
2022/05/15 00:37:29;;;;;;;70.32;29.63;;;;;;;27.45;61.58;97209.59;4910412;29;20060;-63
2022/05/15 00:40:20;;;;;;;86.18;31.00;;;;;;;27.58;55.63;97205.28;4904902;29;20465;-64
2022/05/15 00:43:20;;;;;;;73.82;29.17;;;;;;;27.74;55.55;97169.81;4894853;29;20051;-65
2022/05/15 00:45:56;;;;;;;94.63;31.33;;;;;;;27.82;56.64;97238.50;4892168;29;20040;-64
2022/05/15 00:48:45;;;;;;;102.80;36.53;;;;;;;28.11;53.38;97189.84;4890474;29;20124;-64
2022/05/15 00:51:40;;;;;;;96.63;35.70;;;;;;;28.20;52.98;97186.06;4889422;29;20065;-64
2022/05/15 00:54:41;;;;;;;93.55;35.95;;;;;;;28.21;55.98;97243.34;4908903;29;20087;-64
2022/05/15 00:57:36;;;;;;;88.72;33.83;;;;;;;28.36;55.12;97198.19;4910687;29;20075;-65
2022/05/15 01:00:22;;;;;;;81.03;32.20;;;;;;;28.39;55.98;97181.91;4895586;29;20041;-64
2022/05/15 01:03:17;;;;;;;83.03;31.67;;;;;;;28.42;57.78;97211.47;4907155;29;20578;-64
2022/05/15 01:06:00;;;;;;;113.43;36.03;;;;;;;28.46;58.18;97211.91;4909709;29;20048;-64
2022/05/15 01:08:56;;;;;;;70.75;31.02;;;;;;;28.54;61.35;97182.59;4909080;29;20055;-64
2022/05/15 01:11:34;;;;;;;88.13;32.47;;;;;;;28.52;57.40;97197.88;4900936;29;20056;-64
2022/05/15 01:14:25;;;;;;;82.28;31.10;;;;;;;28.61;60.57;97209.97;4883092;29;20630;-64
2022/05/15 01:17:14;;;;;;;80.88;31.30;;;;;;;28.64;59.02;97206.09;4912746;29;20093;-64
2022/05/15 01:20:12;;;;;;;99.22;32.70;;;;;;;28.71;59.22;97202.47;4917514;29;20056;-65
2022/05/15 01:23:01;;;;;;;85.72;31.20;;;;;;;28.78;59.03;97221.91;4899676;29;20052;-64
2022/05/15 01:25:50;;;;;;;89.70;30.67;;;;;;;28.86;63.37;97227.06;4901541;29;20085;-66
2022/05/15 01:28:39;;;;;;;89.95;31.17;;;;;;;28.88;58.18;97222.38;4899707;29;20062;-65
2022/05/15 01:31:21;;;;;;;80.50;27.65;;;;;;;29.00;60.79;97225.28;4898788;29;20053;-66
2022/05/15 01:34:16;;;;;;;76.45;29.20;;;;;;;29.05;59.61;97225.50;4897657;29;20052;-65
2022/05/15 01:37:07;;;;;;;80.55;27.67;;;;;;;29.15;59.66;97225.94;4901436;29;20044;-64
2022/05/15 01:39:58;;;;;;;64.47;26.98;;;;;;;29.29;63.50;97221.50;4904656;29;20040;-65
2022/05/15 01:42:48;;;;;;;65.32;25.67;;;;;;;29.42;59.40;97220.75;4914249;29;20140;-64
2022/05/15 01:45:30;;;;;;;85.23;27.13;;;;;;;29.57;54.86;97224.06;4914985;29;20123;-64
2022/05/15 01:48:20;;;;;;;63.53;24.40;;;;;;;29.79;60.01;97222.03;4905728;29;20722;-65
2022/05/15 01:51:10;;;;;;;66.07;24.13;;;;;;;30.04;58.59;97213.28;4937786;29;20529;-65
2022/05/15 01:54:01;;;;;;;65.97;23.45;;;;;;;30.53;58.13;97213.88;4905586;29;20422;-64
2022/05/15 01:56:44;;;;;;;58.58;22.50;;;;;;;31.04;56.20;97211.28;4890684;29;20228;-65
2022/05/15 01:59:40;;;;;;;71.63;22.48;;;;;;;31.38;53.07;97228.72;4889296;29;20080;-65
2022/05/15 02:02:16;;;;;;;56.90;21.65;;;;;;;31.81;50.38;97229.72;4893407;29;20049;-66
2022/05/15 02:05:07;;;;;;;53.13;22.45;;;;;;;32.15;52.65;97225.81;4889743;29;20156;-65
2022/05/15 02:07:49;;;;;;;59.63;23.02;;;;;;;32.29;49.57;97229.97;4890927;29;20086;-66
2022/05/15 02:10:38;;;;;;;50.00;21.55;;;;;;;32.61;48.74;97229.88;4924260;29;20496;-66
2022/05/15 02:13:20;;;;;;;62.65;24.23;;;;;;;32.85;47.40;97226.34;4927013;29;20058;-66
2022/05/15 02:16:09;;;;;;;56.70;23.08;;;;;;;33.18;48.59;97222.47;4927205;29;20051;-64
2022/05/15 02:18:59;;;;;;;61.25;20.23;;;;;;;33.55;45.25;97225.91;4918024;29;20051;-66
2022/05/15 02:21:41;;;;;;;56.90;17.83;;;;;;;33.87;47.65;97232.63;4908145;29;20075;-64
2022/05/15 02:24:33;;;;;;;45.90;18.40;;;;;;;34.08;46.82;97239.31;4908216;29;20083;-64
2022/05/15 02:27:23;;;;;;;48.97;16.08;;;;;;;34.40;45.27;97237.16;4904336;29;20511;-64
2022/05/15 02:30:14;;;;;;;59.38;18.38;;;;;;;34.77;47.05;97235.06;4907635;29;20048;-65
2022/05/15 02:33:11;;;;;;;47.45;16.20;;;;;;;34.71;41.08;97241.34;4908722;29;20044;-64
2022/05/15 02:35:47;;;;;;;52.72;16.27;;;;;;;34.83;42.63;97244.81;4907851;29;20047;-64
2022/05/15 02:38:45;;;;;;;44.58;16.40;;;;;;;34.87;41.00;97251.34;4907712;29;20063;-64
2022/05/15 02:41:21;;;;;;;59.90;16.23;;;;;;;34.92;41.70;97240.72;4907805;29;20052;-64
2022/05/15 02:44:11;;;;;;;54.33;16.27;;;;;;;35.18;42.02;97245.56;4907513;29;20495;-65
2022/05/15 02:47:01;;;;;;;42.00;17.20;;;;;;;35.51;44.10;97247.56;4908305;29;20134;-65
2022/05/15 02:52:53;;;;;;;47.67;15.85;;;;;;;35.80;39.20;97251.06;4907795;29;20044;-64
2022/05/15 02:55:35;;;;;;;51.08;14.30;;;;;;;35.95;40.60;97245.97;4907747;29;20083;-65
2022/05/15 02:58:24;;;;;;;46.15;13.77;;;;;;;36.16;40.17;97255.16;4907928;29;20048;-65
2022/05/15 03:01:06;;;;;;;56.00;15.60;;;;;;;35.85;39.58;97247.66;4908545;29;20058;-64
2022/05/15 03:03:55;;;;;;;44.35;14.88;;;;;;;36.01;40.00;97244.97;4907837;29;20059;-65
2022/05/15 03:06:38;;;;;;;52.50;14.75;;;;;;;35.52;39.78;97240.34;4907856;29;20052;-65
2022/05/15 03:09:34;;;;;;;43.20;13.02;;;;;;;36.12;39.73;97243.28;4916241;29;20138;-65
2022/05/15 03:12:10;;;;;;;35.88;11.90;;;;;;;36.56;40.10;97248.81;4921412;29;20048;-65
2022/05/15 03:15:20;;;;;;;33.25;10.13;;;;;;;36.55;39.56;97252.56;4929766;29;20658;-64
2022/05/15 03:17:57;;;;;;;32.17;11.07;;;;;;;36.37;37.90;97256.31;4930683;29;20085;-65
2022/05/15 03:20:46;;;;;;;46.50;11.52;;;;;;;37.03;40.67;97260.78;4931112;28;20127;-65
2022/05/15 03:23:28;;;;;;;34.72;11.30;;;;;;;36.87;35.67;97258.16;4922641;29;20368;-65
2022/05/15 03:26:23;;;;;;;42.55;11.98;;;;;;;36.62;33.86;97248.66;4910053;29;20040;-65
2022/05/15 03:28:59;;;;;;;48.80;12.10;;;;;;;36.87;35.12;97258.97;4894020;29;20122;-66
2022/05/15 03:31:48;;;;;;;;;;;;;;;37.42;38.30;97253.47;4907672;29;20056;-66
2022/05/15 03:34:36;;;;;;;49.15;13.55;;;;;;;37.43;33.30;97255.09;4886826;29;19931;-66
2022/05/15 03:37:32;;;;;;;30.92;10.35;;;;;;;37.84;35.68;97255.53;4904383;29;20048;-65
2022/05/15 03:40:11;;;;;;;40.88;10.80;;;;;;;37.97;35.06;97247.06;4892085;29;20044;-65
2022/05/15 03:42:59;;;;;;;36.58;10.57;;;;;;;38.01;37.13;97245.47;4898245;29;20047;-65
2022/05/15 03:45:41;;;;;;;27.25;9.57;;;;;;;37.33;32.97;97240.72;4921014;29;20059;-65
2022/05/15 03:48:37;;;;;;;33.90;10.43;;;;;;;37.31;33.61;97235.59;4926835;29;20785;-65
2022/05/15 03:51:13;;;;;;;36.72;9.57;;;;;;;37.93;32.61;97232.47;4927784;29;20127;-65
2022/05/15 03:54:09;;;;;;;34.33;9.50;;;;;;;37.96;34.40;97231.97;4940310;29;20066;-65
2022/05/15 03:56:51;;;;;;;43.13;10.55;;;;;;;38.44;35.35;97231.00;4912467;29;20079;-65
2022/05/15 03:59:42;;;;;;;30.20;9.48;;;;;;;38.53;32.69;97231.38;4910814;29;20060;-66
2022/05/15 04:02:30;;;;;;;30.52;9.68;;;;;;;38.55;37.06;97223.84;4914305;29;20125;-65
2022/05/15 04:05:13;;;;;;;36.45;9.48;;;;;;;38.26;33.18;97229.53;4929056;29;20154;-65
2022/05/15 04:08:10;;;;;;;32.63;8.77;;;;;;;38.71;33.40;97233.63;4907551;29;20146;-65
2022/05/15 04:10:59;;;;;;;31.73;8.43;;;;;;;39.11;34.31;97237.63;4902825;29;20041;-65
2022/05/15 04:13:41;;;;;;;28.90;8.13;;;;;;;39.14;31.41;97229.00;4903989;29;20372;-63
2022/05/15 04:16:31;;;;;;;30.85;8.63;;;;;;;39.46;34.68;97228.84;4902792;28;20473;-66
2022/05/15 04:19:20;;;;;;;32.47;8.40;;;;;;;39.49;32.57;97237.22;4904932;29;20144;-66
2022/05/15 04:22:09;;;;;;;25.52;8.45;;;;;;;39.43;30.79;97246.38;4895089;29;20048;-64
2022/05/15 04:24:51;;;;;;;37.53;9.63;;;;;;;39.12;30.54;97247.31;4911994;29;20054;-65
2022/05/15 04:27:41;;;;;;;28.85;7.97;;;;;;;39.72;31.48;97247.50;4910509;29;20480;-66
2022/05/15 04:30:32;;;;;;;25.00;7.72;;;;;;;39.78;31.36;97243.75;4890073;29;20392;-65
2022/05/15 04:33:22;;;;;;;33.28;8.88;;;;;;;39.62;29.18;97243.97;4910337;29;20056;-66
2022/05/15 04:36:05;;;;;;;38.15;8.50;;;;;;;39.71;26.66;97248.59;4902413;29;20072;-65
2022/05/15 04:38:54;;;;;;;29.73;8.05;;;;;;;39.71;26.99;97243.19;4900758;29;20056;-66
2022/05/15 04:41:37;;;;;;;27.95;7.63;;;;;;;39.90;27.28;97248.09;4899807;29;20603;-65
2022/05/15 04:44:27;;;;;;;25.33;7.60;;;;;;;40.02;25.42;97249.44;4895087;29;20097;-66
2022/05/15 04:47:09;;;;;;;;;;;;;;;40.10;27.70;97250.81;4901616;29;20059;-65
2022/05/15 04:49:58;;;;;;;28.02;8.40;;;;;;;40.23;27.90;97249.47;4906314;29;20434;-65
2022/05/15 04:52:40;;;;;;;28.98;7.68;;;;;;;40.43;23.39;97255.66;4911154;29;20062;-67
2022/05/15 04:55:29;;;;;;;25.40;7.80;;;;;;;40.79;25.75;97253.72;4910878;29;20052;-65
2022/05/15 04:58:11;;;;;;;26.10;6.60;;;;;;;40.67;23.20;97249.69;4910580;29;20051;-65
2022/05/15 05:01:00;;;;;;;32.58;7.78;;;;;;;40.60;23.48;97249.16;4911305;29;20627;-65
2022/05/15 05:03:43;;;;;;;;;;;;;;;40.88;24.00;97251.25;4911673;29;20048;-64
2022/05/15 05:06:33;;;;;;;36.28;6.90;;;;;;;40.69;22.63;97252.97;4903861;29;20617;-67
2022/05/15 05:09:16;;;;;;;17.85;7.18;;;;;;;40.93;23.22;97248.56;4904195;28;20656;-67
2022/05/15 05:12:06;;;;;;;36.65;6.75;;;;;;;40.74;24.47;97247.53;4900849;29;20458;-67
2022/05/15 05:14:48;;;;;;;37.28;6.57;;;;;;;40.92;25.24;97241.53;4898858;29;20057;-67
2022/05/15 05:17:37;;;;;;;34.88;7.30;;;;;;;41.30;23.49;97245.44;4902332;29;20576;-68
2022/05/15 05:20:20;;;;;;;27.80;8.23;;;;;;;41.23;25.99;97237.66;4925708;29;20377;-67
2022/05/15 05:23:09;;;;;;;30.40;6.63;;;;;;;41.31;25.60;97243.56;4929337;29;20122;-68
2022/05/15 05:25:51;;;;;;;28.20;7.03;;;;;;;41.05;22.21;97246.34;4928786;29;20055;-67
2022/05/15 05:28:40;;;;;;;28.67;6.63;;;;;;;41.05;20.21;97256.34;4929104;29;20075;-69
2022/05/15 05:31:29;;;;;;;34.40;7.45;;;;;;;41.24;20.55;97252.78;4908495;29;20463;-66
2022/05/15 05:34:11;;;;;;;27.20;6.90;;;;;;;41.23;20.56;97255.75;4892547;29;20045;-69
2022/05/15 05:37:00;;;;;;;24.00;6.70;;;;;;;41.16;22.69;97258.78;4909955;29;20671;-70
2022/05/15 05:39:42;;;;;;;25.67;7.27;;;;;;;41.22;22.24;97254.16;4909888;29;20052;-68
2022/05/15 05:42:31;;;;;;;34.03;8.00;;;;;;;41.18;21.59;97253.09;4904766;29;20275;-68
2022/05/15 05:45:14;;;;;;;24.95;6.93;;;;;;;41.45;21.35;97260.78;4909899;29;20056;-69
2022/05/15 05:48:04;;;;;;;21.17;7.18;;;;;;;41.53;22.06;97257.53;4916605;29;20047;-68
2022/05/15 05:50:46;;;;;;;37.40;8.40;;;;;;;41.42;20.08;97256.75;4928941;29;20066;-68
2022/05/15 05:53:35;;;;;;;24.77;7.40;;;;;;;41.75;22.61;97252.50;4910535;29;20138;-64
2022/05/15 05:56:17;;;;;;;35.35;6.70;;;;;;;41.79;22.82;97260.88;4903006;29;20477;-67
2022/05/15 05:59:06;;;;;;;30.23;6.32;;;;;;;41.91;19.28;97254.00;4891245;29;20528;-67
2022/05/15 06:01:56;;;;;;;27.00;7.47;;;;;;;42.12;21.61;97251.19;4891104;29;20056;-69
2022/05/15 06:04:46;;;;;;;21.98;5.82;;;;;;;42.04;21.50;97251.81;4890787;29;20072;-68
2022/05/15 06:07:42;;;;;;;27.48;6.13;;;;;;;42.12;21.52;97253.91;4901019;29;20143;-70
2022/05/15 06:10:38;;;;;;;25.90;5.82;;;;;;;41.89;20.35;97250.81;4922124;28;20043;-71
2022/05/15 06:13:34;;;;;;;31.08;6.72;;;;;;;42.03;21.82;97251.00;4876699;29;20057;-66
2022/05/15 06:16:11;;;;;;;33.80;6.28;;;;;;;42.03;21.96;97242.06;4861676;29;20048;-68
2022/05/15 06:19:00;;;;;;;38.30;9.40;;;;;;;42.28;23.60;97241.84;4863406;29;20045;-68
2022/05/15 06:21:49;;;;;;;34.50;7.13;;;;;;;42.20;21.36;97242.47;4859055;29;20433;-66
2022/05/15 06:24:31;;;;;;;24.77;6.70;;;;;;;42.19;19.92;97243.53;4849363;29;20377;-69
2022/05/15 06:27:21;;;;;;;39.00;6.20;;;;;;;42.08;21.91;97237.41;4532224;29;10000694;-69
2022/05/15 06:30:04;;;;;;;35.47;6.75;;;;;;;42.03;19.57;97240.16;4525207;29;9999682;-65
2022/05/15 06:32:53;;;;;;;30.50;7.22;;;;;;;41.95;21.98;97238.88;4856836;29;20632;-66
2022/05/15 06:35:36;;;;;;;29.15;6.22;;;;;;;42.06;20.92;97228.78;4854913;29;20696;-66
2022/05/15 06:38:24;;;;;;;46.40;7.28;;;;;;;41.95;20.23;97230.75;4852629;29;20057;-65
2022/05/15 06:41:08;;;;;;;20.37;5.60;;;;;;;41.92;21.67;97234.00;4853300;29;20080;-66
2022/05/15 06:43:57;;;;;;;20.80;5.25;;;;;;;41.87;20.73;97231.31;4858188;29;20684;-65
2022/05/15 06:46:39;;;;;;;27.20;5.10;;;;;;;41.78;20.56;97226.78;4864370;29;20064;-66
2022/05/15 06:49:28;;;;;;;28.67;7.30;;;;;;;41.93;19.99;97230.22;4863045;29;20121;-66
2022/05/15 06:52:17;;;;;;;31.80;7.40;;;;;;;42.14;20.88;97224.66;4859751;29;20110;-70
2022/05/15 06:55:00;;;;;;;26.02;5.60;;;;;;;42.04;19.68;97211.19;4870725;29;20116;-73
2022/05/15 06:57:53;;;;;;;25.90;7.30;;;;;;;42.14;19.80;97206.50;4867369;29;20056;-72
2022/05/15 07:00:41;;;;;;;17.95;5.60;;;;;;;42.23;22.70;97199.34;4857922;29;20050;-70
2022/05/15 07:03:23;;;;;;;33.33;6.20;;;;;;;42.04;22.83;97203.88;4866985;29;20048;-69
2022/05/15 07:06:13;;;;;;;22.40;5.72;;;;;;;42.19;24.96;97201.03;4869269;29;20477;-67
2022/05/15 07:08:55;;;;;;;17.35;5.30;;;;;;;42.36;21.83;97200.63;4868525;29;20110;-70
2022/05/15 07:11:50;;;;;;;18.52;6.63;;;;;;;42.42;25.58;97199.47;4877291;29;20064;-67
2022/05/15 07:14:40;;;;;;;27.73;6.28;;;;;;;42.24;21.54;97192.84;4914590;29;20479;-67
2022/05/15 07:17:28;;;;;;;28.15;6.82;;;;;;;42.06;21.76;97187.34;4917231;29;20052;-68
2022/05/15 07:20:11;;;;;;;43.17;7.13;;;;;;;42.26;21.03;97190.66;4896899;29;20539;-67
2022/05/15 07:23:00;;;;;;;30.45;7.22;;;;;;;42.31;20.33;97182.47;4903216;29;20056;-66
2022/05/15 07:25:42;;;;;;;35.33;8.80;;;;;;;42.37;21.58;97186.81;4910425;29;20127;-67
2022/05/15 07:28:31;;;;;;;38.10;9.13;;;;;;;42.34;21.61;97184.66;4910764;29;20052;-66
2022/05/15 07:31:13;;;;;;;33.57;7.30;;;;;;;42.37;22.37;97181.38;4910393;29;20052;-67
2022/05/15 07:34:02;;;;;;;27.90;6.60;;;;;;;42.36;25.02;97181.66;4910565;29;20044;-66
2022/05/15 07:36:45;;;;;;;21.07;6.53;;;;;;;42.26;20.18;97170.91;4896214;29;20128;-66
2022/05/15 07:39:33;;;;;;;33.65;6.15;;;;;;;42.31;20.98;97173.53;4894028;29;20180;-66
2022/05/15 07:42:15;;;;;;;38.73;5.97;;;;;;;42.28;20.22;97169.53;4893175;29;20049;-67
2022/05/15 07:45:04;;;;;;;45.47;8.73;;;;;;;42.24;21.40;97170.38;4896997;29;20543;-67
2022/05/15 07:47:46;;;;;;;29.40;5.57;;;;;;;42.19;20.79;97167.72;4911971;29;20075;-68
2022/05/15 07:50:38;;;;;;;59.40;7.20;;;;;;;42.30;20.71;97166.53;4900911;29;20060;-66
2022/05/15 07:53:27;;;;;;;31.13;5.55;;;;;;;42.30;20.14;97163.84;4900158;29;20146;-70
2022/05/15 07:56:09;;;;;;;36.75;6.10;;;;;;;42.19;20.16;97154.19;4907564;29;20044;-68
2022/05/15 07:58:58;;;;;;;34.63;8.40;;;;;;;42.10;21.55;97150.47;4928234;29;20060;-68
2022/05/15 08:01:48;;;;;;;32.40;7.28;;;;;;;42.04;21.10;97155.16;4913565;29;20134;-68
2022/05/15 08:10:53;;;;;;;32.45;7.88;;;;;;;41.71;20.76;97154.06;4901477;29;20052;-68
2022/05/15 08:13:35;;;;;;;27.13;7.18;;;;;;;41.77;22.71;97152.91;4888514;29;20516;-68
2022/05/15 08:16:24;;;;;;;33.10;7.10;;;;;;;41.93;22.23;97148.19;4890831;29;20071;-69
2022/05/15 08:25:17;;;;;;;47.22;8.93;;;;;;;41.48;21.25;97136.63;4896873;29;20152;-69
2022/05/15 08:28:07;;;;;;;28.48;8.27;;;;;;;41.44;21.11;97134.75;4906398;29;20562;-69
2022/05/15 08:30:49;;;;;;;34.25;7.68;;;;;;;41.39;20.85;97138.31;4928317;29;20043;-69
2022/05/15 08:33:38;;;;;;;25.50;6.97;;;;;;;41.50;22.12;97134.44;4927547;29;20052;-69
2022/05/15 08:36:21;;;;;;;26.60;8.60;;;;;;;41.74;21.62;97131.84;4908323;29;20131;-68
2022/05/15 08:39:09;;;;;;;34.00;8.05;;;;;;;41.69;21.72;97126.47;4911033;29;20048;-69
2022/05/15 08:42:11;;;;;;;22.90;8.63;;;;;;;42.03;22.09;97131.06;4911350;29;20060;-69
2022/05/15 08:45:05;;;;;;;37.08;8.98;;;;;;;42.02;22.98;97124.84;4907247;29;20484;-69
2022/05/15 08:47:53;;;;;;;32.05;7.68;;;;;;;41.93;22.49;97116.53;4905606;29;20045;-68
2022/05/15 08:50:53;;;;;;;32.13;7.80;;;;;;;41.91;20.35;97112.44;4911122;29;20115;-69
2022/05/15 08:53:48;;;;;;;28.98;6.68;;;;;;;41.84;20.57;97123.63;4910956;29;20063;-68
2022/05/15 08:56:30;;;;;;;38.47;7.32;;;;;;;41.81;18.98;97112.56;4911140;29;20115;-69
2022/05/15 08:59:33;;;;;;;35.58;7.10;;;;;;;41.75;22.40;97109.09;4923133;29;20183;-68
2022/05/15 09:02:23;;;;;;;26.58;7.28;;;;;;;41.72;22.16;97103.44;4930161;29;20102;-68
2022/05/15 09:05:06;;;;;;;28.05;6.03;;;;;;;41.72;20.58;97098.84;4930121;29;20122;-68
2022/05/15 09:08:21;;;;;;;34.33;6.35;;;;;;;41.60;19.91;97095.69;4928924;29;20047;-68
2022/05/15 09:11:09;;;;;;;23.92;6.28;;;;;;;41.69;21.84;97093.19;4927339;29;20056;-68
2022/05/15 09:14:07;;;;;;;24.23;5.03;;;;;;;41.90;21.57;97089.22;4927871;29;20111;-68
2022/05/15 09:16:59;;;;;;;28.27;5.63;;;;;;;41.82;22.56;97087.94;4900931;29;20448;-68
2022/05/15 09:19:43;;;;;;;30.05;5.30;;;;;;;41.87;22.26;97087.88;4901167;29;20111;-67
2022/05/15 09:22:46;;;;;;;29.38;4.53;;;;;;;41.93;19.31;97088.66;4899207;29;20071;-69
2022/05/15 09:25:24;;;;;;;29.10;5.05;;;;;;;41.82;20.17;97087.94;4900705;29;20063;-68
2022/05/15 09:28:13;;;;;;;23.83;5.43;;;;;;;41.83;21.25;97073.28;4898721;29;20055;-68
2022/05/15 09:31:05;;;;;;;38.30;5.53;;;;;;;41.79;21.06;97077.66;4901537;29;20056;-69
2022/05/15 09:33:56;;;;;;;25.25;4.80;;;;;;;41.76;20.69;97078.22;4906841;29;20047;-69
2022/05/15 09:36:51;;;;;;;41.28;5.70;;;;;;;41.73;21.91;97072.59;4908574;29;20667;-68
2022/05/15 09:39:46;;;;;;;34.80;5.88;;;;;;;41.79;20.77;97074.97;4908927;29;20135;-69
2022/05/15 09:46:11;;;;;;;29.58;5.07;;;;;;;41.57;21.75;97067.31;4908733;29;20095;-69
2022/05/15 09:49:01;;;;;;;18.92;4.93;;;;;;;41.62;22.15;97061.06;4924654;29;20055;-68
2022/05/15 09:51:53;;;;;;;26.42;4.70;;;;;;;41.77;21.74;97066.31;4924818;29;20064;-68
2022/05/15 09:54:43;;;;;;;24.00;5.13;;;;;;;41.64;23.08;97053.47;4926558;29;20079;-67
2022/05/15 09:57:32;;;;;;;25.80;5.40;;;;;;;41.60;22.76;97061.31;4917459;29;20071;-70
2022/05/15 10:00:22;;;;;;;28.20;6.27;;;;;;;41.68;22.44;97067.22;4915754;29;20425;-68
2022/05/15 10:03:26;;;;;;;35.33;5.88;;;;;;;41.57;23.25;97053.00;4926234;29;20047;-67
2022/05/15 10:06:15;;;;;;;25.40;6.88;;;;;;;41.45;23.80;97052.50;4926826;29;20048;-68
2022/05/15 10:09:11;;;;;;;37.17;5.82;;;;;;;41.53;23.54;97051.94;4925965;29;20111;-68
2022/05/15 10:12:14;;;;;;;45.50;5.75;;;;;;;41.46;24.66;97052.25;4924337;29;20787;-68
2022/05/15 10:15:06;;;;;;;23.58;4.93;;;;;;;41.46;24.32;97052.25;4925760;29;20075;-69
2022/05/15 10:18:01;;;;;;;29.02;5.30;;;;;;;41.41;22.87;97055.00;4925169;29;20622;-69
2022/05/15 10:20:47;;;;;;;21.05;4.50;;;;;;;41.49;22.14;97059.00;4923579;29;20586;-69
2022/05/15 10:23:47;;;;;;;25.48;5.40;;;;;;;41.38;22.50;97049.34;4923484;29;20060;-68
2022/05/15 10:26:45;;;;;;;30.02;4.88;;;;;;;41.32;23.05;97045.06;4925978;29;20055;-69
2022/05/15 10:29:56;;;;;;;31.70;5.22;;;;;;;41.34;23.49;97042.91;4921948;29;20122;-70
2022/05/15 10:32:46;;;;;;;21.67;5.47;;;;;;;41.30;25.09;97037.22;4905636;29;20055;-70
2022/05/15 10:36:01;;;;;;;28.15;5.43;;;;;;;41.31;24.13;97032.63;4905927;29;20048;-66
2022/05/15 10:38:56;;;;;;;34.70;5.30;;;;;;;41.28;24.36;97034.81;4904372;29;20063;-67
2022/05/15 10:41:56;;;;;;;36.58;6.28;;;;;;;41.19;24.76;97036.50;4910537;29;20761;-68
2022/05/15 10:44:59;;;;;;;32.20;6.28;;;;;;;41.21;24.87;97028.91;4909891;29;20052;-67
2022/05/15 10:47:46;;;;;;;37.53;8.05;;;;;;;41.22;24.39;97035.13;4908696;29;20150;-68
2022/05/15 10:50:53;;;;;;;38.40;7.18;;;;;;;41.19;23.62;97030.28;4908805;29;20052;-69
2022/05/15 10:57:25;;;;;;;28.23;6.07;;;;;;;41.00;24.58;97024.75;4898983;29;20060;-71
2022/05/15 11:00:01;;;;;;;29.90;6.28;;;;;;;40.89;23.54;97034.00;4920961;29;20048;-71
2022/05/15 11:03:05;;;;;;;25.35;6.10;;;;;;;40.92;22.93;97030.75;4924318;29;20055;-70
2022/05/15 11:06:04;;;;;;;26.92;5.93;;;;;;;40.89;24.18;97040.19;4921981;29;20780;-68
2022/05/15 11:09:12;;;;;;;24.13;5.90;;;;;;;40.86;24.04;97032.69;4921604;29;20574;-68
2022/05/15 11:12:22;;;;;;;33.03;6.97;;;;;;;40.66;25.39;97037.34;4915744;29;20075;-70
2022/05/15 11:15:34;;;;;;;26.88;6.47;;;;;;;40.63;24.28;97027.91;4921776;29;20062;-69
2022/05/15 11:18:37;;;;;;;41.28;6.75;;;;;;;40.53;25.88;97026.09;4923808;29;20039;-71
2022/05/15 11:21:52;;;;;;;28.83;6.13;;;;;;;40.51;25.79;97025.56;4923936;29;20134;-69
2022/05/15 11:24:47;;;;;;;33.42;6.10;;;;;;;40.50;24.23;97021.22;4909086;29;20052;-71
2022/05/15 11:28:01;;;;;;;26.13;6.43;;;;;;;40.43;25.09;97020.72;4923510;28;20051;-69
2022/05/15 11:30:47;;;;;;;33.83;6.57;;;;;;;40.46;25.10;97025.59;4920924;29;20058;-72
2022/05/15 11:33:38;;;;;;;28.38;6.60;;;;;;;40.39;26.13;97019.66;4918984;29;20062;-72
2022/05/15 11:36:26;;;;;;;33.97;6.43;;;;;;;40.26;26.20;97022.97;4924292;29;20058;-70
2022/05/15 11:39:22;;;;;;;39.20;7.38;;;;;;;40.26;25.68;97025.66;4924394;29;20076;-72
2022/05/15 11:42:17;;;;;;;24.92;6.35;;;;;;;40.21;25.08;97028.38;4925403;29;20052;-70
2022/05/15 11:45:35;;;;;;;32.05;6.65;;;;;;;40.17;25.85;97027.28;4929932;29;20114;-73
2022/05/15 11:48:30;;;;;;;32.63;5.90;;;;;;;40.14;24.89;97025.97;4929230;29;20089;-71
2022/05/15 11:51:20;;;;;;;42.25;6.97;;;;;;;40.10;26.39;97029.47;4929778;29;20071;-70
2022/05/15 11:54:33;;;;;;;25.92;5.60;;;;;;;39.94;25.79;97025.22;4915688;29;20204;-70
2022/05/15 11:57:14;;;;;;;32.30;6.57;;;;;;;39.92;26.42;97027.38;4913269;29;20138;-71
2022/05/15 12:00:26;;;;;;;27.10;7.60;;;;;;;39.79;27.49;97020.63;4911473;29;20151;-70
2022/05/15 12:03:03;;;;;;;34.10;6.60;;;;;;;39.70;28.25;97011.47;4910215;29;20055;-70
2022/05/15 12:06:10;;;;;;;;;;;;;;;39.59;26.64;97016.06;4908352;29;20128;-69
2022/05/15 12:09:12;;;;;;;26.80;5.68;;;;;;;39.48;29.23;97017.19;4900363;29;19927;-70
2022/05/15 12:12:31;;;;;;;22.38;5.90;;;;;;;39.18;28.90;97012.59;4886865;29;20048;-70
2022/05/15 12:15:19;;;;;;;28.75;7.25;;;;;;;38.99;30.75;97008.81;4588662;29;9488768;-70
2022/05/15 12:18:17;;;;;;;30.30;6.50;;;;;;;38.76;31.26;97010.09;4909964;29;20056;-70
2022/05/15 12:21:00;;;;;;;30.52;6.38;;;;;;;38.80;28.62;97019.25;4900673;29;20056;-71
2022/05/15 12:27:05;;;;;;;29.10;6.03;;;;;;;38.51;31.41;97027.00;4892127;29;20056;-72
2022/05/15 12:30:09;;;;;;;32.58;7.38;;;;;;;38.56;30.05;97020.81;4904514;29;20048;-69
2022/05/15 12:32:50;;;;;;;31.75;7.43;;;;;;;38.60;29.01;97027.31;4891465;29;20049;-69
2022/05/15 12:35:43;;;;;;;34.40;6.93;;;;;;;38.73;28.44;97026.78;4898359;29;20048;-71
2022/05/15 12:38:28;;;;;;;40.28;6.85;;;;;;;38.54;29.92;97025.69;4928931;29;20142;-70
2022/05/15 12:41:26;;;;;;;29.52;6.65;;;;;;;38.31;31.31;97026.13;4915254;29;20052;-66
2022/05/15 12:44:15;;;;;;;41.45;7.28;;;;;;;38.27;30.65;97023.13;4908773;29;20052;-67
2022/05/15 12:47:01;;;;;;;40.67;8.10;;;;;;;38.22;29.52;97032.00;4907690;29;20146;-69
2022/05/15 12:49:54;;;;;;;29.50;7.82;;;;;;;38.25;28.93;97030.66;4909807;29;20115;-69
2022/05/15 12:52:43;;;;;;;25.08;6.40;;;;;;;38.07;31.31;97029.25;4910885;29;20103;-69
2022/05/15 12:55:39;;;;;;;;;;;;;;;37.89;31.30;97032.34;4911642;29;20075;-70
2022/05/15 12:58:32;;;;;;;36.08;7.35;;;;;;;37.82;31.42;97029.06;4907958;29;19986;-70
2022/05/15 13:01:22;;;;;;;;;;;;;;;37.70;33.32;97036.50;4903960;29;20044;-71
2022/05/15 13:04:15;;;;;;;31.02;6.60;;;;;;;37.49;31.32;97030.97;4911280;29;20015;-69
2022/05/15 13:07:05;;;;;;;32.30;6.47;;;;;;;37.42;32.34;97040.34;4902973;29;20052;-72
2022/05/15 13:10:05;;;;;;;36.55;7.57;;;;;;;37.30;32.71;97040.50;4900323;29;20062;-70
2022/05/15 13:13:03;;;;;;;32.13;7.25;;;;;;;37.13;33.07;97042.50;4901863;29;20056;-70
2022/05/15 13:15:49;;;;;;;34.95;7.20;;;;;;;37.00;35.32;97035.66;4888927;29;20040;-70
2022/05/15 13:18:42;;;;;;;26.92;6.07;;;;;;;36.83;35.10;97044.88;4905724;28;20047;-67
2022/05/15 13:21:39;;;;;;;29.77;6.90;;;;;;;36.56;41.44;97042.94;4890112;29;20131;-71
2022/05/15 13:24:29;;;;;;;31.27;6.40;;;;;;;36.26;41.02;97045.28;4886457;29;20555;-69
2022/05/15 13:27:18;;;;;;;25.27;7.63;;;;;;;36.20;37.88;97051.63;4889821;29;20546;-67
2022/05/15 13:30:06;;;;;;;36.53;7.30;;;;;;;36.01;38.14;97053.75;4890532;29;20068;-67
2022/05/15 13:33:08;;;;;;;50.58;8.95;;;;;;;35.88;41.03;97062.16;4889204;29;20060;-65
2022/05/15 13:35:53;;;;;;;25.45;7.63;;;;;;;35.70;38.26;97055.16;4892409;29;20531;-65